Columbus Air Force Base
KCBM : now visible

Airfield :











YOU CAN JOIN US ON...

 
LOGIN :

Register | Disclaimer

   EN    FR    IT 

 









Legend :    VFR   Marginal VFR   IFR   Intensive IFR   Very Intensive IFR
Visi :
Ceiling :
>= 8 km
>= 3000ft
5 to 8 km
1000 to 3000 ft
1500m to 5 km
500 to 1000 ft
800 to 1500m
200 to 500 ft
< 800m
< 200 ft
Symbols :   Thunderstorms  Fog  Heavy snow  Heavy precipitations  Wind > 20 kt






- Airport Elevation : 219 ft


KCBM - Columbus Air Force Base

CURRENT METAR :
  • 142056Z AUTO 25007KT 10SM OVC034 15/08 A2983 RMK AO2 SLP104 T01490077 55006 $

EXPIRED METARs :
  • 142041Z AUTO 25006KT 10SM SCT030 BKN038 BKN150 15/08 A2982 RMK AO2 SLP101 $
  • 141956Z AUTO 26003KT 10SM BKN028 OVC035 14/08 A2982 RMK AO2 SLP101 T01430083 $
  • 141926Z AUTO 24003KT 10SM BKN025 BKN030 14/08 A2982 RMK AO2 SLP101 $
  • 141921Z AUTO 28004KT 10SM BKN029 14/08 A2982 RMK AO2 SLP101 $
  • 141856Z AUTO 24006KT 10SM FEW020 13/08 A2983 RMK AO2 SLP104 T01290078 $
  • 141836Z AUTO 28008KT 10SM SCT020 BKN038 13/08 A2984 RMK AO2 SLP108 $
  • 141806Z AUTO 24003KT 10SM FEW016 SCT027 OVC037 12/08 A2985 RMK AO2 SLP111 $

TAF AMD TAF KCBM
Valid from the 13 at 23:00 until the 14 at 23:00 UTC


132337Z 1323/1423 VRB06KT 9999 OVC005 QNH2979INS
BECMG 1406/1407 28009KT 9999 OVC010 QNH2979INS TX10/1417Z TN06/1405Z LAST NO AMDS AFT 1323 NEXT 1510



MET'MAP, your aeronautical weather chart ! - Copyright ORBIFLY December 2007 - Disclaimer

ORBIFLY MET'MAP TEAM :

Programming & Development : Alexandra Zaïnal
Concept & original design : Baudouin d'Aumeries
Assistance for programming : Marc-Olivier Méhu
Technical & hardware support : Manuel Goepfert

Contact : metmap@orbifly.com




SOURCES & CREDITS :

   NOAA       Earth
Advisory